createdAt,value
2019-05-03T00:01:46.999Z,74.40
2019-05-03T00:04:18.308Z,74.40
2019-05-03T00:06:49.741Z,74.30
2019-05-03T00:09:22.571Z,74.30
2019-05-03T00:11:53.956Z,74.50
2019-05-03T00:14:25.898Z,74.40
2019-05-03T00:16:57.201Z,74.40
2019-05-03T00:19:28.608Z,75.40
2019-05-03T00:22:02.107Z,74.40
2019-05-03T00:24:34.646Z,74.50
2019-05-03T00:27:06.194Z,74.50
2019-05-03T00:29:37.466Z,74.60
2019-05-03T00:32:08.850Z,74.60
2019-05-03T00:34:46.492Z,74.80
2019-05-03T00:37:21.755Z,76.00
2019-05-03T00:40:04.611Z,76.20
2019-05-03T00:42:36.790Z,76.20
2019-05-03T00:45:09.005Z,76.20
2019-05-03T00:47:42.037Z,76.30
2019-05-03T00:50:13.543Z,76.40
2019-05-03T00:52:44.925Z,76.40
2019-05-03T00:55:19.180Z,76.40
2019-05-03T00:57:49.154Z,76.30
2019-05-03T01:00:21.771Z,76.30
2019-05-03T01:02:53.503Z,76.30
2019-05-03T01:05:24.782Z,76.30
2019-05-03T01:07:56.514Z,76.30
2019-05-03T01:10:27.790Z,76.40
2019-05-03T01:12:59.036Z,76.40
2019-05-03T01:15:42.331Z,76.30
2019-05-03T01:18:15.593Z,76.50
2019-05-03T01:33:22.583Z,76.20
2019-05-03T01:35:55.330Z,76.30
2019-05-03T01:38:31.721Z,76.50
2019-05-03T01:41:03.115Z,76.60
2019-05-03T01:43:34.759Z,76.80
2019-05-03T01:46:06.313Z,76.80
2019-05-03T01:49:03.557Z,76.80
2019-05-03T01:52:12.807Z,76.80
2019-05-03T01:54:45.309Z,76.80
2019-05-03T01:57:17.093Z,76.60
2019-05-03T01:59:48.479Z,76.60
2019-05-03T02:02:45.263Z,76.60
2019-05-03T02:05:38.085Z,76.50
2019-05-03T02:08:12.592Z,76.50
2019-05-03T02:10:45.028Z,76.30
2019-05-03T02:13:16.440Z,77.00
2019-05-03T02:15:47.794Z,76.10
2019-05-03T02:18:19.146Z,76.00
2019-05-03T02:20:52.409Z,75.90
2019-05-03T02:23:23.598Z,75.80
2019-05-03T02:25:58.971Z,75.70
2019-05-03T02:28:28.428Z,75.70
2019-05-03T02:31:03.464Z,75.50
2019-05-03T02:33:35.375Z,75.40
2019-05-03T02:36:07.122Z,75.40
2019-05-03T02:38:38.691Z,75.20
2019-05-03T02:41:13.202Z,75.10
2019-05-03T02:43:47.143Z,75.10
2019-05-03T02:46:40.461Z,75.80
2019-05-03T02:49:35.289Z,74.90
2019-05-03T02:52:06.995Z,74.80
2019-05-03T02:54:38.782Z,74.40
2019-05-03T02:57:10.290Z,74.20
2019-05-03T02:59:41.997Z,73.90
2019-05-03T03:02:15.189Z,73.70
2019-05-03T03:04:46.846Z,73.60
2019-05-03T03:07:19.062Z,73.50
2019-05-03T03:09:51.014Z,73.20
2019-05-03T03:12:25.743Z,72.80
2019-05-03T03:15:01.401Z,72.20
2019-05-03T03:17:36.502Z,72.10
2019-05-03T03:20:10.347Z,71.70
2019-05-03T03:22:46.759Z,71.60
2019-05-03T03:25:25.579Z,71.30
2019-05-03T03:27:59.548Z,71.00
2019-05-03T03:31:11.243Z,71.00
2019-05-03T03:33:47.129Z,70.90
2019-05-03T03:36:50.437Z,70.70
2019-05-03T03:38:50.333Z,70.60
2019-05-03T03:41:24.827Z,71.20
2019-05-03T03:43:57.854Z,70.30
2019-05-03T03:46:32.250Z,70.30
2019-05-03T03:49:06.851Z,70.10
2019-05-03T03:51:39.078Z,69.90
2019-05-03T03:54:15.556Z,69.70
2019-05-03T03:57:01.585Z,69.60
2019-05-03T03:59:26.576Z,69.30
2019-05-03T04:01:58.481Z,69.10
2019-05-03T04:04:31.320Z,68.70
2019-05-03T04:07:06.233Z,68.30
2019-05-03T04:09:36.938Z,67.80
2019-05-03T04:12:08.342Z,67.40
2019-05-03T04:14:59.184Z,67.00
2019-05-03T04:17:59.075Z,66.80
2019-05-03T04:20:36.527Z,66.40
2019-05-03T04:23:07.868Z,66.20
2019-05-03T04:25:40.120Z,66.00
2019-05-03T04:28:13.085Z,64.80
2019-05-03T04:30:46.069Z,64.50
2019-05-03T04:33:17.555Z,64.30
2019-05-03T04:35:49.108Z,63.70
2019-05-03T04:38:20.459Z,63.40
2019-05-03T04:40:52.113Z,62.90
2019-05-03T04:43:26.155Z,62.40
2019-05-03T04:46:09.764Z,62.20
2019-05-03T04:48:41.130Z,62.10
2019-05-03T04:51:12.584Z,61.90
2019-05-03T04:53:47.885Z,61.90
2019-05-03T04:56:19.479Z,61.50
2019-05-03T04:58:51.023Z,61.40
2019-05-03T05:01:22.623Z,60.90
2019-05-03T05:03:55.883Z,60.20
2019-05-03T05:06:27.421Z,59.90
2019-05-03T05:08:58.967Z,59.60
2019-05-03T05:11:30.729Z,59.70
2019-05-03T05:14:02.231Z,59.60
2019-05-03T05:16:35.565Z,59.30
2019-05-03T05:19:10.206Z,59.30
2019-05-03T05:21:45.685Z,58.90
2019-05-03T05:24:17.013Z,57.90
2019-05-03T05:27:00.733Z,56.80
2019-05-03T05:29:34.594Z,56.30
2019-05-03T05:32:06.291Z,55.30
2019-05-03T05:34:39.512Z,54.90
2019-05-03T05:37:11.002Z,54.40
2019-05-03T05:39:44.601Z,54.10
2019-05-03T05:42:16.684Z,53.70
2019-05-03T06:47:55.097Z,40.30
2019-05-03T06:50:28.919Z,39.70
2019-05-03T06:53:05.827Z,39.30
2019-05-03T06:55:35.221Z,39.00
2019-05-03T06:58:06.971Z,38.70
2019-05-03T07:00:57.144Z,39.00
2019-05-03T07:03:51.711Z,38.20
2019-05-03T07:06:41.004Z,37.80
2019-05-03T07:09:35.455Z,37.70
2019-05-03T07:12:06.916Z,37.80
2019-05-03T07:14:38.349Z,38.00
2019-05-03T07:17:10.032Z,38.50
2019-05-03T07:19:41.532Z,38.90
2019-05-03T07:22:15.134Z,39.70
2019-05-03T07:24:49.847Z,40.40
2019-05-03T07:27:24.752Z,41.10
2019-05-03T07:29:56.212Z,41.60
2019-05-03T07:32:27.784Z,41.60
2019-05-03T07:34:59.591Z,41.80
2019-05-03T07:37:30.985Z,42.20
2019-05-03T07:40:04.622Z,42.60
2019-05-03T07:42:35.767Z,43.00
2019-05-03T07:45:08.980Z,43.90
2019-05-03T07:47:40.625Z,44.10
2019-05-03T07:50:12.076Z,44.40
2019-05-03T07:52:45.093Z,44.60
2019-05-03T07:55:18.340Z,44.60
2019-05-03T07:57:56.053Z,45.00
2019-05-03T08:00:27.497Z,45.40
2019-05-03T08:02:59.019Z,45.60
2019-05-03T08:05:30.577Z,45.20
2019-05-03T08:08:02.026Z,44.20
2019-05-03T08:10:34.515Z,43.00
2019-05-03T08:13:06.262Z,42.20
2019-05-03T08:15:37.692Z,40.70
2019-05-03T08:18:09.162Z,40.40
2019-05-03T08:20:40.675Z,40.10
2019-05-03T08:23:24.467Z,39.90
2019-05-03T08:25:45.457Z,39.90
2019-05-03T08:28:17.015Z,39.80
2019-05-03T08:31:16.672Z,40.10
2019-05-03T08:34:07.122Z,40.70
2019-05-03T08:36:55.995Z,40.90
2019-05-03T08:39:27.375Z,40.80
2019-05-03T08:42:00.811Z,41.00
2019-05-03T08:44:32.437Z,41.10
2019-05-03T08:47:05.235Z,41.00
2019-05-03T08:49:37.911Z,41.00
2019-05-03T08:52:09.509Z,41.10
2019-05-03T08:54:41.383Z,41.20
2019-05-03T08:57:14.806Z,41.90
2019-05-03T08:59:45.874Z,41.20
2019-05-03T09:02:18.085Z,41.50
2019-05-03T09:04:50.151Z,41.80
2019-05-03T09:07:21.559Z,41.70
2019-05-03T09:09:59.044Z,42.00
2019-05-03T09:12:48.288Z,42.40
2019-05-03T09:15:21.764Z,42.30
2019-05-03T09:17:55.133Z,41.80
2019-05-03T09:20:26.445Z,41.20
2019-05-03T09:22:58.058Z,40.00
2019-05-03T09:25:29.339Z,39.20
2019-05-03T09:28:01.019Z,39.20
2019-05-03T09:30:40.095Z,39.10
2019-05-03T09:33:11.604Z,39.40
2019-05-03T09:35:45.126Z,39.70
2019-05-03T09:38:16.510Z,39.10
2019-05-03T09:40:47.789Z,38.50
2019-05-03T09:43:19.173Z,38.10
2019-05-03T09:45:50.772Z,36.90
2019-05-03T09:48:22.329Z,35.60
2019-05-03T09:50:55.454Z,36.20
2019-05-03T09:53:29.481Z,36.30
2019-05-03T09:56:01.162Z,36.70
2019-05-03T09:58:36.436Z,37.50
2019-05-03T10:01:08.348Z,38.40
2019-05-03T10:03:39.287Z,39.20
2019-05-03T10:06:10.507Z,39.90
2019-05-03T10:08:42.617Z,39.70
2019-05-03T10:11:15.471Z,38.80
2019-05-03T10:13:48.802Z,38.70
2019-05-03T10:16:22.026Z,38.30
2019-05-03T10:18:55.290Z,38.20
2019-05-03T10:21:29.042Z,38.00
2019-05-03T10:24:00.780Z,37.80
2019-05-03T10:26:32.242Z,38.00
2019-05-03T10:29:05.404Z,38.80
2019-05-03T10:31:44.951Z,38.40
2019-05-03T10:34:16.357Z,38.60
2019-05-03T10:36:47.818Z,38.60
2019-05-03T10:39:19.423Z,38.90
2019-05-03T10:41:50.761Z,39.10
2019-05-03T10:44:24.422Z,38.30
2019-05-03T10:46:55.932Z,38.10
2019-05-03T10:49:27.693Z,37.60
2019-05-03T10:52:02.584Z,36.90
2019-05-03T10:54:35.788Z,36.50
2019-05-03T10:57:12.992Z,35.70
2019-05-03T10:59:44.867Z,35.80
2019-05-03T11:02:42.891Z,33.50
2019-05-03T11:05:14.662Z,33.10
2019-05-03T11:07:46.074Z,32.80
2019-05-03T11:10:18.674Z,32.50
2019-05-03T11:12:50.048Z,32.10
2019-05-03T11:15:21.839Z,32.00
2019-05-03T11:17:54.933Z,32.40
2019-05-03T11:20:36.434Z,32.80
2019-05-03T11:23:09.556Z,33.20
2019-05-03T11:25:40.918Z,33.70
2019-05-03T11:28:25.271Z,34.30
2019-05-03T11:31:02.281Z,34.80
2019-05-03T11:33:38.090Z,35.70
2019-05-03T11:36:16.948Z,35.10
2019-05-03T11:38:48.701Z,35.10
2019-05-03T11:41:30.337Z,34.90
2019-05-03T11:43:52.899Z,35.10
2019-05-03T11:46:24.865Z,35.40
2019-05-03T11:48:56.175Z,35.80
2019-05-03T11:51:27.607Z,35.90
2019-05-03T11:53:59.003Z,36.00
2019-05-03T11:56:31.927Z,36.30
2019-05-03T11:59:05.295Z,36.30
2019-05-03T12:02:10.511Z,36.00
2019-05-03T12:04:41.929Z,35.50
2019-05-03T12:07:18.479Z,35.00
2019-05-03T12:09:49.168Z,35.00
2019-05-03T12:12:29.552Z,36.20
2019-05-03T12:15:01.028Z,36.90
2019-05-03T12:17:35.815Z,38.20
2019-05-03T12:20:09.407Z,39.30
2019-05-03T12:22:41.740Z,40.00
2019-05-03T12:25:16.284Z,40.80
2019-05-03T12:27:46.425Z,41.50
2019-05-03T12:30:17.918Z,42.20
2019-05-03T12:32:49.319Z,42.90
2019-05-03T12:35:20.795Z,43.60
2019-05-03T12:37:52.028Z,44.00
2019-05-03T12:40:25.356Z,44.40
2019-05-03T12:42:56.583Z,44.70
2019-05-03T12:45:28.113Z,44.70
2019-05-03T12:47:59.515Z,44.70
2019-05-03T12:50:32.043Z,44.60
2019-05-03T12:53:04.848Z,44.60
2019-05-03T12:55:36.359Z,44.50
2019-05-03T12:58:07.793Z,44.40
2019-05-03T13:00:58.125Z,44.50
2019-05-03T13:03:35.463Z,44.90
2019-05-03T13:06:07.428Z,45.50
2019-05-03T13:08:42.670Z,46.40
2019-05-03T13:11:14.036Z,47.10
2019-05-03T13:13:45.535Z,47.80
2019-05-03T13:16:19.236Z,48.40
2019-05-03T13:18:51.637Z,48.80
2019-05-03T13:21:25.284Z,49.10
2019-05-03T13:23:57.174Z,49.30
2019-05-03T13:26:28.484Z,49.40
2019-05-03T13:28:59.979Z,49.70
2019-05-03T13:31:31.803Z,49.70
2019-05-03T13:34:05.431Z,49.40
2019-05-03T13:36:36.428Z,49.10
2019-05-03T13:39:13.422Z,48.80
2019-05-03T13:41:45.349Z,48.50
2019-05-03T13:44:18.605Z,48.20
2019-05-03T13:46:50.987Z,48.20
2019-05-03T13:49:26.190Z,48.30
2019-05-03T14:52:57.022Z,43.20
2019-05-03T14:55:49.841Z,43.20
2019-05-03T14:58:52.755Z,43.40
2019-05-03T15:01:31.272Z,43.20
2019-05-03T15:04:02.653Z,43.10
2019-05-03T15:06:35.553Z,43.00
2019-05-03T15:09:08.928Z,42.60
2019-05-03T15:11:40.315Z,42.50
2019-05-03T15:14:11.833Z,42.80
2019-05-03T15:16:45.016Z,42.90
2019-05-03T15:19:16.578Z,42.80
2019-05-03T15:21:48.085Z,42.90
2019-05-03T15:24:20.520Z,42.90
2019-05-03T15:26:52.158Z,42.90
2019-05-03T15:29:24.843Z,42.80
2019-05-03T15:31:56.409Z,42.70
2019-05-03T15:34:28.070Z,42.70
2019-05-03T15:36:59.748Z,42.80
2019-05-03T15:39:31.821Z,43.00
2019-05-03T15:42:05.311Z,43.20
2019-05-03T15:51:08.614Z,46.40
2019-05-03T15:53:40.378Z,48.10
2019-05-03T15:56:11.713Z,49.50
2019-05-03T15:58:46.413Z,50.70
2019-05-03T16:01:16.230Z,51.80
2019-05-03T16:03:47.814Z,52.60
2019-05-03T16:06:19.374Z,53.40
2019-05-03T16:08:50.646Z,53.90
2019-05-03T16:11:21.983Z,54.40
2019-05-03T16:13:55.298Z,54.80
2019-05-03T16:16:28.035Z,55.10
2019-05-03T16:18:59.498Z,55.30
2019-05-03T16:21:31.202Z,55.50
2019-05-03T16:24:04.874Z,55.70
2019-05-03T16:26:37.982Z,55.70
2019-05-03T16:29:12.301Z,55.70
2019-05-03T16:31:45.034Z,55.80
2019-05-03T16:34:16.684Z,56.20
2019-05-03T16:36:48.528Z,56.30
2019-05-03T16:39:20.119Z,56.50
2019-05-03T16:41:52.744Z,56.70
2019-05-03T16:44:24.574Z,56.80
2019-05-03T16:46:56.063Z,56.80
2019-05-03T16:49:27.352Z,56.40
2019-05-03T16:51:58.874Z,56.40
2019-05-03T16:54:30.612Z,56.40
2019-05-03T16:57:05.618Z,56.30
2019-05-03T16:59:37.081Z,56.00
2019-05-03T17:02:11.757Z,55.90
2019-05-03T17:04:48.531Z,55.70
2019-05-03T17:07:40.365Z,55.60
2019-05-03T17:10:15.924Z,55.30
2019-05-03T17:12:48.075Z,55.10
2019-05-03T17:15:19.730Z,55.00
2019-05-03T17:17:51.289Z,54.90
2019-05-03T17:20:25.432Z,54.60
2019-05-03T17:22:58.682Z,54.50
2019-05-03T17:25:30.234Z,54.40
2019-05-03T17:28:02.459Z,54.20
2019-05-03T17:30:37.230Z,54.20
2019-05-03T17:33:07.599Z,54.10
2019-05-03T17:35:39.037Z,53.90
2019-05-03T17:38:10.576Z,53.90
2019-05-03T17:40:51.009Z,53.90
2019-05-03T17:43:27.479Z,53.90
2019-05-03T17:45:59.501Z,53.80
2019-05-03T17:48:31.168Z,53.90
2019-05-03T17:51:04.437Z,53.90
2019-05-03T17:53:55.304Z,54.00
2019-05-03T17:56:44.734Z,54.20
2019-05-03T17:59:35.308Z,54.20
2019-05-03T18:02:32.384Z,54.40
2019-05-03T18:05:25.006Z,54.50
2019-05-03T18:08:21.432Z,54.60
2019-05-03T18:11:14.840Z,54.90
2019-05-03T18:13:46.297Z,55.30
2019-05-03T18:16:19.411Z,55.50
2019-05-03T18:18:50.793Z,55.80
2019-05-03T18:21:24.342Z,55.90
2019-05-03T18:23:55.465Z,56.10
2019-05-03T18:26:26.964Z,56.10
2019-05-03T18:28:58.234Z,56.20
2019-05-03T18:31:29.774Z,56.30
2019-05-03T18:34:01.466Z,56.30
2019-05-03T18:36:34.663Z,56.30
2019-05-03T18:39:08.330Z,56.20
2019-05-03T18:41:40.154Z,56.20
2019-05-03T18:44:39.752Z,56.20
2019-05-03T18:47:15.131Z,56.20
2019-05-03T18:49:47.276Z,56.20
2019-05-03T18:52:18.887Z,56.20
2019-05-03T18:54:50.740Z,56.30
2019-05-03T18:57:22.756Z,56.40
2019-05-03T18:59:55.553Z,56.30
2019-05-03T19:02:27.247Z,56.40
2019-05-03T19:04:58.660Z,56.40
2019-05-03T19:07:42.763Z,56.50
2019-05-03T19:10:24.808Z,56.60
2019-05-03T19:13:18.784Z,56.70
2019-05-03T19:15:50.324Z,56.70
2019-05-03T19:18:29.574Z,56.90
2019-05-03T19:21:01.425Z,57.10
2019-05-03T19:23:35.343Z,57.30
2019-05-03T19:26:06.501Z,57.50
2019-05-03T19:28:37.991Z,57.50
2019-05-03T19:31:09.944Z,57.70
2019-05-03T19:33:41.486Z,57.70
2019-05-03T19:36:13.155Z,57.70
2019-05-03T19:38:44.964Z,57.80
2019-05-03T19:41:17.144Z,57.90
2019-05-03T19:43:49.864Z,58.00
2019-05-03T19:46:21.706Z,58.10
2019-05-03T19:48:54.712Z,58.20
2019-05-03T19:51:27.808Z,58.30
2019-05-03T19:53:59.413Z,58.50
2019-05-03T19:56:31.137Z,58.60
2019-05-03T19:59:06.995Z,58.70
2019-05-03T20:01:55.248Z,58.90
2019-05-03T20:04:35.222Z,58.90
2019-05-03T20:07:18.617Z,59.20
2019-05-03T20:09:50.103Z,59.30
2019-05-03T20:12:21.548Z,59.30
2019-05-03T20:14:54.630Z,59.60
2019-05-03T20:17:26.217Z,59.50
2019-05-03T20:19:59.636Z,59.70
2019-05-03T20:22:32.604Z,59.70
2019-05-03T20:25:05.666Z,59.80
2019-05-03T20:27:36.945Z,59.70
2019-05-03T20:30:08.802Z,59.80
2019-05-03T20:32:40.521Z,59.70
2019-05-03T20:35:18.841Z,59.70
2019-05-03T20:37:47.322Z,59.60
2019-05-03T20:40:20.428Z,60.50
2019-05-03T20:43:14.177Z,60.60
2019-05-03T20:46:10.302Z,60.50
2019-05-03T20:48:44.818Z,60.50
2019-05-03T20:51:18.534Z,60.50
2019-05-03T20:53:50.100Z,60.50
2019-05-03T20:56:24.516Z,60.60
2019-05-03T20:58:55.903Z,60.90
2019-05-03T21:01:27.938Z,60.60
2019-05-03T21:03:59.781Z,60.60
2019-05-03T21:06:35.513Z,60.70
2019-05-03T21:09:06.606Z,60.70
2019-05-03T21:11:39.837Z,60.70
2019-05-03T21:14:11.423Z,60.80
2019-05-03T21:17:11.252Z,60.90
2019-05-03T21:19:50.990Z,61.00
2019-05-03T21:22:30.583Z,60.90
2019-05-03T21:25:11.092Z,60.90
2019-05-03T21:27:44.922Z,61.00
2019-05-03T21:30:16.677Z,60.90
2019-05-03T21:32:48.159Z,60.90
2019-05-03T21:35:21.111Z,60.90
2019-05-03T21:37:54.438Z,60.90
2019-05-03T21:40:26.660Z,61.00
2019-05-03T21:42:58.098Z,60.90
2019-05-03T21:45:37.864Z,60.90
2019-05-03T21:48:14.582Z,60.90
2019-05-03T21:50:46.641Z,60.90
2019-05-03T21:53:18.027Z,60.80
2019-05-03T21:55:51.419Z,60.70
2019-05-03T21:58:25.042Z,60.80
2019-05-03T22:01:05.236Z,60.80
2019-05-03T22:03:38.328Z,60.60
2019-05-03T22:06:09.964Z,60.60
2019-05-03T22:08:41.771Z,60.60
2019-05-03T22:11:14.837Z,60.60
2019-05-03T22:13:48.330Z,60.60
2019-05-03T23:13:25.015Z,60.00
2019-05-03T23:15:56.590Z,59.90
2019-05-03T23:18:28.097Z,60.00
2019-05-03T23:21:24.518Z,60.10
2019-05-03T23:23:55.985Z,60.00
2019-05-03T23:26:27.641Z,60.00
2019-05-03T23:29:00.460Z,60.10
2019-05-03T23:31:34.273Z,60.00
2019-05-03T23:34:05.414Z,60.00
2019-05-03T23:36:36.806Z,60.00
2019-05-03T23:39:09.281Z,60.00
2019-05-03T23:41:40.860Z,59.90
2019-05-03T23:44:12.575Z,60.70
2019-05-03T23:46:57.076Z,59.80
2019-05-03T23:49:29.961Z,59.80
2019-05-03T23:52:06.358Z,59.70
2019-05-03T23:54:37.750Z,59.70
2019-05-03T23:57:09.028Z,59.70
2019-05-03T23:59:40.676Z,59.50
